ポンペイ島 の空港の天気 - METARとTAF

ポンペイ国際空港 ( PTPN / PNI ) - ミクロネシア連邦 ポンペイ島
飛行場実況気象(Metar)
観測時間05/20 09:59 +11 (05/19 22:59 UTC)
風向・風速南東 4m/s
視程10km以上
天気現象
全天の8割程度の雲 雲底高度 520m
全天を覆う雲 雲底高度 3960m
気温28℃
湿度84%
気圧1012hPa
METARPTPN 192259Z 13007KT 15SM BKN017TCU OVC130 28/25 A2988 RMK TCU ALQDS LAST
過去の天気等 Google飛行場航空写真 Wunderground天気予報

過去48時間のMETAR

飛行場予報(TAF)
発表時間: 5/20 10:28 +11 (5/19 23:28 UTC)
予報対象時間: 20日11時 +11 ~ 21日11時 +11
風向・風速東 6m/s
視程10km以上
天気現象周辺でしゅう雨
全天の8割程度の雲 雲底高度 520m
全天の8割程度の雲 雲底高度 3960m
20日11時 +11 ~ 20日15時 +11 に一時的に
視程8050m
天気現象しゅう雨
全天を覆う雲 雲底高度 520m
20日15時 +11 から
風向・風速東 6m/s
視程10km以上
天気現象周辺でしゅう雨
全天の4割程度の雲 雲底高度 520m
全天の8割程度の雲 雲底高度 3960m
20日15時 +11 ~ 20日19時 +11 に一時的に
視程8050m
天気現象しゅう雨
全天の8割程度の雲 雲底高度 520m
全天を覆う雲 雲底高度 3960m
PTPN 192328Z 2000/2024 09011KT P6SM VCSH BKN017 BKN130
TEMPO 2000/2004 5SM SHRA OVC017
FM200400 09011KT P6SM VCSH SCT017 BKN130
TEMPO 2004/2008 5SM SHRA BKN017 OVC130